createdAt,value
2024-04-13T00:00:58.938Z,8.85
2024-04-13T00:01:59.629Z,8.83
2024-04-13T00:02:58.955Z,8.81
2024-04-13T00:03:59.589Z,8.79
2024-04-13T00:04:58.886Z,8.77
2024-04-13T00:05:58.441Z,8.75
2024-04-13T00:06:59.473Z,8.76
2024-04-13T00:07:58.406Z,8.76
2024-04-13T00:08:59.448Z,8.76
2024-04-13T00:09:58.767Z,8.75
2024-04-13T00:10:58.761Z,8.73
2024-04-13T00:11:58.358Z,8.73
2024-04-13T00:12:58.757Z,8.71
2024-04-13T00:13:59.381Z,8.72
2024-04-13T00:14:58.755Z,8.74
2024-04-13T00:15:58.667Z,8.77
2024-04-13T00:16:58.759Z,8.80
2024-04-13T00:17:59.874Z,8.82
2024-04-13T00:18:58.373Z,8.84
2024-04-13T00:19:58.659Z,8.83
2024-04-13T00:20:58.620Z,8.82
2024-04-13T00:21:58.609Z,8.78
2024-04-13T00:22:58.602Z,8.76
2024-04-13T00:23:59.242Z,8.75
2024-04-13T00:24:58.574Z,8.73
2024-04-13T00:25:59.215Z,8.73
2024-04-13T00:26:59.205Z,8.73
2024-04-13T00:27:58.341Z,8.72
2024-04-13T00:28:58.516Z,8.70
2024-04-13T00:29:59.726Z,8.68
2024-04-13T00:30:58.527Z,8.63
2024-04-13T00:31:59.116Z,8.60
2024-04-13T00:32:58.593Z,8.56
2024-04-13T00:33:59.090Z,8.54
2024-04-13T00:34:58.461Z,8.54
2024-04-13T00:35:58.412Z,8.55
2024-04-13T00:36:59.612Z,8.55
2024-04-13T00:37:58.401Z,8.57
2024-04-13T00:38:58.380Z,8.57
2024-04-13T00:39:59.033Z,8.57
2024-04-13T00:40:59.004Z,8.57
2024-04-13T00:41:58.367Z,8.55
2024-04-13T00:42:58.971Z,8.54
2024-04-13T00:43:58.307Z,8.51
2024-04-13T00:44:58.318Z,8.49
2024-04-13T00:45:58.927Z,8.48
2024-04-13T00:46:58.266Z,8.48
2024-04-13T00:47:59.561Z,8.48
2024-04-13T00:48:58.313Z,8.48
2024-04-13T00:49:58.880Z,8.48
2024-04-13T00:50:58.911Z,8.47
2024-04-13T00:51:58.199Z,8.46
2024-04-13T00:52:58.175Z,8.44
2024-04-13T00:53:59.388Z,8.42
2024-04-13T00:54:58.806Z,8.42
2024-04-13T00:55:58.790Z,8.41
2024-04-13T00:56:58.175Z,8.42
2024-04-13T00:57:58.111Z,8.42
2024-04-13T00:58:58.778Z,8.43
2024-04-13T00:59:58.114Z,8.45
2024-04-13T01:00:58.506Z,8.45
2024-04-13T01:01:58.727Z,8.45
2024-04-13T01:02:58.070Z,8.45
2024-04-13T01:03:58.114Z,8.44
2024-04-13T01:04:58.025Z,8.43
2024-04-13T01:05:58.019Z,8.42
2024-04-13T01:06:57.991Z,8.41
2024-04-13T01:07:58.022Z,8.39
2024-04-13T01:08:58.616Z,8.38
2024-04-13T01:09:57.949Z,8.38
2024-04-13T01:10:58.605Z,8.37
2024-04-13T01:11:58.651Z,8.38
2024-04-13T01:12:58.583Z,8.39
2024-04-13T01:13:58.557Z,8.40
2024-04-13T01:14:58.548Z,8.40
2024-04-13T01:15:57.637Z,8.41
2024-04-13T01:16:57.856Z,8.41
2024-04-13T01:17:57.589Z,8.41
2024-04-13T01:18:58.510Z,8.41
2024-04-13T01:19:58.452Z,8.39
2024-04-13T01:20:57.803Z,8.37
2024-04-13T01:21:58.473Z,8.35
2024-04-13T01:22:57.791Z,8.33
2024-04-13T01:23:58.457Z,8.30
2024-04-13T01:24:58.387Z,8.28
2024-04-13T01:25:57.597Z,8.26
2024-04-13T01:26:58.374Z,8.26
2024-04-13T01:27:58.364Z,8.27
2024-04-13T01:28:58.343Z,8.28
2024-04-13T01:29:57.680Z,8.28
2024-04-13T01:30:57.663Z,8.27
2024-04-13T01:31:57.022Z,8.26
2024-04-13T01:32:58.387Z,8.23
2024-04-13T01:33:57.686Z,8.20
2024-04-13T01:34:57.614Z,8.19
2024-04-13T01:35:57.589Z,8.18
2024-04-13T01:36:57.575Z,8.19
2024-04-13T01:37:58.228Z,8.20
2024-04-13T01:38:57.567Z,8.20
2024-04-13T01:39:58.195Z,8.20
2024-04-13T01:40:57.539Z,8.19
2024-04-13T01:41:57.509Z,8.18
2024-04-13T01:42:57.506Z,8.16
2024-04-13T01:43:57.477Z,8.14
2024-04-13T01:44:58.133Z,8.11
2024-04-13T01:45:57.438Z,8.10
2024-04-13T01:46:57.435Z,8.10
2024-04-13T01:47:57.501Z,8.10
2024-04-13T01:48:57.522Z,8.10
2024-04-13T01:49:57.420Z,8.09
2024-04-13T01:50:57.409Z,8.06
2024-04-13T01:51:57.386Z,8.04
2024-04-13T01:52:57.399Z,8.01
2024-04-13T01:53:57.361Z,7.99
2024-04-13T01:54:58.012Z,7.97
2024-04-13T01:55:57.967Z,7.96
2024-04-13T01:56:57.946Z,7.93
2024-04-13T01:57:57.940Z,7.91
2024-04-13T01:58:57.923Z,7.89
2024-04-13T01:59:57.942Z,7.86
2024-04-13T02:00:57.969Z,7.83
2024-04-13T02:01:57.926Z,7.83
2024-04-13T02:02:57.258Z,7.83
2024-04-13T02:03:57.318Z,7.83
2024-04-13T02:04:57.854Z,7.82
2024-04-13T02:05:57.831Z,7.80
2024-04-13T02:06:57.179Z,7.75
2024-04-13T02:07:57.820Z,7.72
2024-04-13T02:08:57.164Z,7.69
2024-04-13T02:09:57.109Z,7.67
2024-04-13T02:10:57.841Z,7.68
2024-04-13T02:11:57.746Z,7.71
2024-04-13T02:12:57.741Z,7.74
2024-04-13T02:13:57.059Z,7.76
2024-04-13T02:14:57.710Z,7.77
2024-04-13T02:15:57.699Z,7.78
2024-04-13T02:16:57.689Z,7.79
2024-04-13T02:17:57.747Z,7.79
2024-04-13T02:18:58.118Z,7.79
2024-04-13T02:19:57.026Z,7.78
2024-04-13T02:20:56.985Z,7.75
2024-04-13T02:21:56.962Z,7.72
2024-04-13T02:22:57.624Z,7.69
2024-04-13T02:23:57.599Z,7.65
2024-04-13T02:24:57.575Z,7.61
2024-04-13T02:25:56.924Z,7.58
2024-04-13T02:26:57.560Z,7.55
2024-04-13T02:27:56.976Z,7.52
2024-04-13T02:28:56.889Z,7.50
2024-04-13T02:29:56.276Z,7.47
2024-04-13T02:30:57.501Z,7.47
2024-04-13T02:31:57.497Z,7.47
2024-04-13T02:32:56.943Z,7.49
2024-04-13T02:33:56.874Z,7.52
2024-04-13T02:34:57.435Z,7.54
2024-04-13T02:35:56.784Z,7.54
2024-04-13T02:36:57.401Z,7.54
2024-04-13T02:37:56.029Z,7.52
2024-04-13T02:38:56.737Z,7.50
2024-04-13T02:39:56.725Z,7.47
2024-04-13T02:40:56.699Z,7.45
2024-04-13T02:41:56.701Z,7.42
2024-04-13T02:42:56.669Z,7.39
2024-04-13T02:43:56.668Z,7.35
2024-04-13T02:44:57.306Z,7.31
2024-04-13T02:45:57.282Z,7.30
2024-04-13T02:46:56.624Z,7.29
2024-04-13T02:47:56.657Z,7.28
2024-04-13T02:48:56.786Z,7.29
2024-04-13T02:49:56.605Z,7.31
2024-04-13T02:50:56.606Z,7.32
2024-04-13T02:51:56.533Z,7.31
2024-04-13T02:52:56.522Z,7.29
2024-04-13T02:53:56.534Z,7.26
2024-04-13T02:54:56.512Z,7.25
2024-04-13T02:55:56.547Z,7.25
2024-04-13T02:56:56.460Z,7.27
2024-04-13T02:57:57.119Z,7.30
2024-04-13T02:58:56.463Z,7.32
2024-04-13T02:59:57.082Z,7.31
2024-04-13T03:00:57.119Z,7.30
2024-04-13T03:01:57.071Z,7.29
2024-04-13T03:02:57.159Z,7.28
2024-04-13T03:03:57.126Z,7.26
2024-04-13T03:04:56.365Z,7.24
2024-04-13T03:05:56.337Z,7.21
2024-04-13T03:06:57.006Z,7.19
2024-04-13T03:07:56.329Z,7.16
2024-04-13T03:08:56.358Z,7.13
2024-04-13T03:09:56.962Z,7.11
2024-04-13T03:10:57.037Z,7.10
2024-04-13T03:11:56.965Z,7.07
2024-04-13T03:12:56.276Z,7.06
2024-04-13T03:13:56.944Z,7.08
2024-04-13T03:14:56.234Z,7.10
2024-04-13T03:15:56.243Z,7.11
2024-04-13T03:16:56.221Z,7.10
2024-04-13T03:17:56.870Z,7.08
2024-04-13T03:18:56.824Z,7.06
2024-04-13T03:19:56.836Z,7.06
2024-04-13T03:20:56.840Z,7.06
2024-04-13T03:21:56.180Z,7.06
2024-04-13T03:22:56.866Z,7.06
2024-04-13T03:23:56.797Z,7.06
2024-04-13T03:24:56.749Z,7.09
2024-04-13T03:25:56.714Z,7.11
2024-04-13T03:26:55.868Z,7.13
2024-04-13T03:27:56.702Z,7.13
2024-04-13T03:28:56.678Z,7.13
2024-04-13T03:29:56.006Z,7.12
2024-04-13T03:30:56.018Z,7.11
2024-04-13T03:31:56.044Z,7.08
2024-04-13T03:32:56.022Z,7.05
2024-04-13T03:33:56.039Z,7.03
2024-04-13T03:34:55.797Z,7.00
2024-04-13T03:35:56.025Z,6.98
2024-04-13T03:36:56.584Z,6.98
2024-04-13T03:37:55.922Z,6.98
2024-04-13T03:38:55.900Z,6.97
2024-04-13T03:39:55.877Z,6.95
2024-04-13T03:40:55.858Z,6.92
2024-04-13T03:41:56.509Z,6.89
2024-04-13T03:42:57.051Z,6.86
2024-04-13T03:43:57.058Z,6.85
2024-04-13T03:44:56.473Z,6.83
2024-04-13T03:45:57.002Z,6.81
2024-04-13T03:46:55.798Z,6.79
2024-04-13T03:47:56.496Z,6.78
2024-04-13T03:48:55.844Z,6.79
2024-04-13T03:49:55.791Z,6.82
2024-04-13T03:50:55.077Z,6.85
2024-04-13T03:51:55.723Z,6.87
2024-04-13T03:52:55.705Z,6.88
2024-04-13T03:53:56.368Z,6.88
2024-04-13T03:54:55.700Z,6.87
2024-04-13T03:55:55.703Z,6.85
2024-04-13T03:56:56.316Z,6.83
2024-04-13T03:57:55.619Z,6.79
2024-04-13T03:58:56.281Z,6.77
2024-04-13T03:59:55.620Z,6.74
2024-04-13T04:00:55.685Z,6.72
2024-04-13T04:01:55.598Z,6.72
2024-04-13T04:02:56.219Z,6.73
2024-04-13T04:03:55.692Z,6.73
2024-04-13T04:04:55.595Z,6.73
2024-04-13T04:05:55.549Z,6.72
2024-04-13T04:06:56.151Z,6.71
2024-04-13T04:07:55.485Z,6.69
2024-04-13T04:08:55.490Z,6.68
2024-04-13T04:09:55.522Z,6.67
2024-04-13T04:10:56.151Z,6.65
2024-04-13T04:11:56.205Z,6.64
2024-04-13T04:12:56.106Z,6.64
2024-04-13T04:13:56.073Z,6.63
2024-04-13T04:14:55.417Z,6.61
2024-04-13T04:15:56.042Z,6.57
2024-04-13T04:16:55.372Z,6.53
2024-04-13T04:17:55.418Z,6.50
2024-04-13T04:18:56.174Z,6.47
2024-04-13T04:19:55.336Z,6.45
2024-04-13T04:20:55.325Z,6.43
2024-04-13T04:21:55.974Z,6.42
2024-04-13T04:22:55.300Z,6.39
2024-04-13T04:23:55.985Z,6.37
2024-04-13T04:24:55.291Z,6.34
2024-04-13T04:25:55.926Z,6.31
2024-04-13T04:26:55.897Z,6.28
2024-04-13T04:27:55.236Z,6.25
2024-04-13T04:28:55.215Z,6.24
2024-04-13T04:29:55.208Z,6.27
2024-04-13T04:30:54.734Z,6.31
2024-04-13T04:31:55.821Z,6.33
2024-04-13T04:32:55.352Z,6.36
2024-04-13T04:33:55.876Z,6.37
2024-04-13T04:34:55.131Z,6.37
2024-04-13T04:35:55.108Z,6.35
2024-04-13T04:36:54.385Z,6.33
2024-04-13T04:37:55.103Z,6.30
2024-04-13T04:38:54.312Z,6.29
2024-04-13T04:39:55.076Z,6.29
2024-04-13T04:40:55.767Z,6.30
2024-04-13T04:41:55.759Z,6.31
2024-04-13T04:42:55.694Z,6.30
2024-04-13T04:43:54.603Z,6.28
2024-04-13T04:44:54.619Z,6.27
2024-04-13T04:45:54.966Z,6.27
2024-04-13T04:46:54.624Z,6.26
2024-04-13T04:47:55.713Z,6.25
2024-04-13T04:48:55.673Z,6.24
2024-04-13T04:49:55.586Z,6.23
2024-04-13T04:50:54.905Z,6.22
2024-04-13T04:51:54.909Z,6.21
2024-04-13T04:52:54.789Z,6.20
2024-04-13T04:53:54.943Z,6.17
2024-04-13T04:54:54.779Z,6.16
2024-04-13T04:55:55.492Z,6.16
2024-04-13T04:56:54.850Z,6.16
2024-04-13T04:57:54.830Z,6.20
2024-04-13T04:58:54.822Z,6.22
2024-04-13T04:59:56.005Z,6.26
2024-04-13T05:00:54.503Z,6.28
2024-04-13T05:01:57.249Z,6.29
2024-04-13T05:02:54.760Z,6.29
2024-04-13T05:03:56.077Z,6.28
2024-04-13T05:04:55.957Z,6.29
2024-04-13T05:05:55.926Z,6.31
2024-04-13T05:06:55.911Z,6.32
2024-04-13T05:07:57.094Z,6.34
2024-04-13T05:08:55.893Z,6.36
2024-04-13T05:09:55.861Z,6.37
2024-04-13T05:10:55.365Z,6.38
2024-04-13T05:11:54.647Z,6.40
2024-04-13T05:12:54.626Z,6.41
2024-04-13T05:13:54.629Z,6.42
2024-04-13T05:14:54.603Z,6.43
2024-04-13T05:15:54.593Z,6.45
2024-04-13T05:16:55.214Z,6.48
2024-04-13T05:17:54.653Z,6.50
2024-04-13T05:18:55.413Z,6.54
2024-04-13T05:19:54.543Z,6.57
2024-04-13T05:20:54.537Z,6.60
2024-04-13T05:21:54.514Z,6.63
2024-04-13T05:22:55.705Z,6.66
2024-04-13T05:23:54.497Z,6.70
2024-04-13T05:24:54.460Z,6.73
2024-04-13T05:25:54.477Z,6.77
2024-04-13T05:26:54.463Z,6.80
2024-04-13T05:27:54.396Z,6.83
2024-04-13T05:28:55.599Z,6.86
2024-04-13T05:29:54.396Z,6.89
2024-04-13T05:30:54.386Z,6.93
2024-04-13T05:31:54.369Z,6.97
2024-04-13T05:32:53.793Z,7.01
2024-04-13T05:33:54.436Z,7.05
2024-04-13T05:34:55.001Z,7.10
2024-04-13T05:35:54.389Z,7.14
2024-04-13T05:36:54.298Z,7.17
2024-04-13T05:37:54.941Z,7.21
2024-04-13T05:38:54.919Z,7.25
2024-04-13T05:39:54.281Z,7.28
2024-04-13T05:40:53.481Z,7.32
2024-04-13T05:41:54.216Z,7.36
2024-04-13T05:42:53.569Z,7.41
2024-04-13T05:43:54.860Z,7.47
2024-04-13T05:44:54.195Z,7.52
2024-04-13T05:45:54.831Z,7.56
2024-04-13T05:46:54.853Z,7.61
2024-04-13T05:47:54.224Z,7.65
2024-04-13T05:48:53.396Z,7.69
2024-04-13T05:49:54.790Z,7.72
2024-04-13T05:50:57.667Z,7.76
2024-04-13T05:51:54.138Z,7.81
2024-04-13T05:52:54.100Z,7.86
2024-04-13T05:53:55.258Z,7.91
2024-04-13T05:54:54.695Z,7.95
2024-04-13T05:55:54.011Z,8.00
2024-04-13T05:56:54.000Z,8.04
2024-04-13T05:57:54.821Z,8.08
2024-04-13T05:58:54.650Z,8.12
2024-04-13T05:59:55.184Z,8.16
2024-04-13T06:00:55.306Z,8.19
2024-04-13T06:01:53.963Z,8.23
2024-04-13T06:02:55.255Z,8.27
2024-04-13T06:03:55.155Z,8.29
2024-04-13T06:04:53.943Z,8.31
2024-04-13T06:05:55.094Z,8.33
2024-04-13T06:06:53.886Z,8.35
2024-04-13T06:07:53.893Z,8.36
2024-04-13T06:08:53.871Z,8.40
2024-04-13T06:09:53.830Z,8.42
2024-04-13T06:10:54.527Z,8.45
2024-04-13T06:11:53.840Z,8.47
2024-04-13T06:12:54.450Z,8.50
2024-04-13T06:13:54.452Z,8.55
2024-04-13T06:14:53.769Z,8.59
2024-04-13T06:15:54.439Z,8.61
2024-04-13T06:16:54.498Z,8.65
2024-04-13T06:17:53.735Z,8.69
2024-04-13T06:18:54.414Z,8.73
2024-04-13T06:19:53.692Z,8.76
2024-04-13T06:20:54.334Z,8.76
2024-04-13T06:21:53.683Z,8.79
2024-04-13T06:22:53.681Z,8.82
2024-04-13T06:23:54.320Z,8.85
2024-04-13T06:24:53.665Z,8.91
2024-04-13T06:25:54.274Z,8.97
2024-04-13T06:26:53.609Z,9.01
2024-04-13T06:27:54.246Z,9.08
2024-04-13T06:28:53.604Z,9.12
2024-04-13T06:29:53.609Z,9.18
2024-04-13T06:30:53.584Z,9.24
2024-04-13T06:31:54.223Z,9.30
2024-04-13T06:32:53.590Z,9.36
2024-04-13T06:33:53.740Z,9.43
2024-04-13T06:34:53.495Z,9.52
2024-04-13T06:35:54.125Z,9.63
2024-04-13T06:36:53.493Z,9.71
2024-04-13T06:37:53.470Z,9.82
2024-04-13T06:38:53.462Z,9.90
2024-04-13T06:39:54.107Z,9.97
2024-04-13T06:40:54.062Z,10.04
2024-04-13T06:41:54.038Z,10.14
2024-04-13T06:42:53.431Z,10.20
2024-04-13T06:43:54.010Z,10.25
2024-04-13T06:44:52.597Z,10.35
2024-04-13T06:45:53.352Z,10.47
2024-04-13T06:46:53.428Z,10.58
2024-04-13T06:47:53.329Z,10.66
2024-04-13T06:48:53.976Z,10.75
2024-04-13T06:49:54.635Z,10.84
2024-04-13T06:50:53.278Z,10.95
2024-04-13T06:51:52.894Z,11.04
2024-04-13T06:52:52.892Z,11.11
2024-04-13T06:53:53.878Z,11.24
2024-04-13T06:54:53.233Z,11.37
2024-04-13T06:55:53.864Z,11.50
2024-04-13T06:56:53.837Z,11.60
2024-04-13T06:57:53.155Z,11.67
2024-04-13T06:58:53.156Z,11.82
2024-04-13T06:59:54.370Z,12.01
2024-04-13T07:00:54.447Z,12.20
2024-04-13T07:01:53.785Z,12.51
2024-04-13T07:02:53.778Z,12.81
2024-04-13T07:03:53.790Z,13.10
2024-04-13T07:04:53.085Z,13.42
2024-04-13T07:05:52.357Z,13.80
2024-04-13T07:06:54.314Z,14.08
2024-04-13T07:07:53.040Z,14.35
2024-04-13T07:08:53.672Z,14.67
2024-04-13T07:09:53.704Z,14.80
2024-04-13T07:10:53.689Z,14.72
2024-04-13T07:11:52.983Z,14.74
2024-04-13T07:12:53.011Z,14.72
2024-04-13T07:13:53.611Z,14.81
2024-04-13T07:14:54.136Z,14.91
2024-04-13T07:15:53.060Z,15.05
2024-04-13T07:16:55.059Z,15.14
2024-04-13T07:17:53.671Z,15.33
2024-04-13T07:18:54.114Z,15.51
2024-04-13T07:19:54.071Z,15.64
2024-04-13T07:20:54.099Z,15.79
2024-04-13T07:21:53.543Z,15.89
2024-04-13T07:22:52.838Z,15.88
2024-04-13T07:23:52.817Z,15.79
2024-04-13T07:24:53.445Z,15.82
2024-04-13T07:25:52.770Z,15.71
2024-04-13T07:26:53.983Z,15.68
2024-04-13T07:27:52.885Z,15.89
2024-04-13T07:28:52.758Z,16.23
2024-04-13T07:29:53.388Z,16.49
2024-04-13T07:30:52.728Z,16.56
2024-04-13T07:31:53.366Z,16.69
2024-04-13T07:32:52.735Z,16.92
2024-04-13T07:33:53.419Z,17.22
2024-04-13T07:34:52.672Z,17.49
2024-04-13T07:35:52.666Z,17.69
2024-04-13T07:36:55.359Z,17.63
2024-04-13T07:37:53.265Z,17.46
2024-04-13T07:38:53.303Z,17.39
2024-04-13T07:39:52.620Z,17.43
2024-04-13T07:40:52.611Z,17.48
2024-04-13T07:41:52.593Z,17.63
2024-04-13T07:42:52.583Z,17.97
2024-04-13T07:43:52.537Z,18.21
2024-04-13T07:44:52.568Z,18.47
2024-04-13T07:45:52.535Z,18.59
2024-04-13T07:46:53.162Z,18.69
2024-04-13T07:47:52.539Z,18.86
2024-04-13T07:48:52.562Z,18.82
2024-04-13T07:49:52.464Z,18.70
2024-04-13T07:50:53.092Z,18.50
2024-04-13T07:51:52.497Z,18.31
2024-04-13T07:52:52.463Z,18.48
2024-04-13T07:53:53.612Z,19.00
2024-04-13T07:54:52.405Z,19.24
2024-04-13T07:55:52.108Z,19.55
2024-04-13T07:56:52.108Z,19.69
2024-04-13T07:57:52.138Z,20.15
2024-04-13T07:58:53.009Z,20.24
2024-04-13T07:59:52.338Z,20.63
2024-04-13T08:00:53.094Z,21.13
2024-04-13T08:01:52.155Z,21.17
2024-04-13T08:02:52.187Z,20.65
2024-04-13T08:03:52.194Z,20.29
2024-04-13T08:04:52.109Z,19.95
2024-04-13T08:05:51.548Z,19.87
2024-04-13T08:06:53.475Z,19.76
2024-04-13T08:07:52.196Z,19.98
2024-04-13T08:08:52.172Z,20.04
2024-04-13T08:09:52.141Z,20.18
2024-04-13T08:10:51.444Z,20.36
2024-04-13T08:11:52.197Z,20.64
2024-04-13T08:12:51.438Z,20.77
2024-04-13T08:13:51.406Z,20.67
2024-04-13T08:14:52.122Z,20.41
2024-04-13T08:15:52.290Z,20.30
2024-04-13T08:16:52.854Z,20.57
2024-04-13T08:17:52.091Z,20.83
2024-04-13T08:18:52.138Z,20.95
2024-04-13T08:19:51.459Z,21.27
2024-04-13T08:20:52.681Z,21.63
2024-04-13T08:21:51.374Z,21.99
2024-04-13T08:22:51.984Z,22.19
2024-04-13T08:23:52.007Z,22.48
2024-04-13T08:24:52.710Z,22.64
2024-04-13T08:25:51.970Z,22.61
2024-04-13T08:26:52.620Z,22.62
2024-04-13T08:27:51.480Z,22.44
2024-04-13T08:28:51.924Z,22.39
2024-04-13T08:29:51.145Z,22.43
2024-04-13T08:30:52.028Z,22.35
2024-04-13T08:31:51.914Z,21.87
2024-04-13T08:32:51.906Z,21.70
2024-04-13T08:33:51.997Z,21.70
2024-04-13T08:34:52.516Z,21.88
2024-04-13T08:35:51.064Z,22.12
2024-04-13T08:36:52.521Z,22.10
2024-04-13T08:37:51.812Z,22.24
2024-04-13T08:38:51.837Z,22.43
2024-04-13T08:39:51.799Z,22.62
2024-04-13T08:40:52.428Z,22.80
2024-04-13T08:41:51.732Z,22.97
2024-04-13T08:42:51.784Z,22.71
2024-04-13T08:43:52.398Z,22.37
2024-04-13T08:44:54.214Z,22.54
2024-04-13T08:45:51.756Z,22.79
2024-04-13T08:46:52.329Z,22.80
2024-04-13T08:47:52.413Z,23.05
2024-04-13T08:48:52.441Z,22.90
2024-04-13T08:49:51.020Z,23.02
2024-04-13T08:50:52.283Z,23.26
2024-04-13T08:51:50.882Z,23.47
2024-04-13T08:52:52.242Z,23.79
2024-04-13T08:53:52.240Z,24.16
2024-04-13T08:54:51.612Z,24.30
2024-04-13T08:55:51.536Z,24.35
2024-04-13T08:56:51.578Z,24.02
2024-04-13T08:57:52.231Z,23.85
2024-04-13T08:58:51.522Z,23.73
2024-04-13T08:59:50.755Z,23.78
2024-04-13T09:00:52.244Z,23.89
2024-04-13T09:01:51.033Z,24.09
2024-04-13T09:02:51.510Z,24.25
2024-04-13T09:03:51.517Z,24.58
2024-04-13T09:04:51.411Z,24.62
2024-04-13T09:05:51.399Z,24.21
2024-04-13T09:06:51.135Z,24.23
2024-04-13T09:07:50.968Z,24.01
2024-04-13T09:08:52.028Z,23.57
2024-04-13T09:09:50.816Z,23.61
2024-04-13T09:10:51.407Z,23.84
2024-04-13T09:11:51.997Z,24.17
2024-04-13T09:12:51.346Z,24.34
2024-04-13T09:13:53.015Z,24.04
2024-04-13T09:14:51.326Z,24.11
2024-04-13T09:15:51.997Z,24.42
2024-04-13T09:16:51.941Z,24.55
2024-04-13T09:17:52.483Z,24.57
2024-04-13T09:18:52.076Z,24.70
2024-04-13T09:19:51.216Z,24.92
2024-04-13T09:20:51.218Z,25.10
2024-04-13T09:21:50.805Z,25.07
2024-04-13T09:22:51.236Z,24.94
2024-04-13T09:23:51.823Z,24.71
2024-04-13T09:24:51.844Z,24.44
2024-04-13T09:25:50.858Z,24.25
2024-04-13T09:26:51.145Z,24.05
2024-04-13T09:27:51.792Z,24.21
2024-04-13T09:28:51.797Z,24.17
2024-04-13T09:29:51.080Z,24.22
2024-04-13T09:30:50.475Z,24.39
2024-04-13T09:31:51.730Z,24.56
2024-04-13T09:32:51.775Z,24.63
2024-04-13T09:33:52.319Z,24.38
2024-04-13T09:34:51.708Z,24.40
2024-04-13T09:35:52.219Z,24.53
2024-04-13T09:36:51.673Z,24.72
2024-04-13T09:37:51.000Z,24.95
2024-04-13T09:38:52.198Z,25.06
2024-04-13T09:39:52.228Z,25.35
2024-04-13T09:40:51.652Z,25.46
2024-04-13T09:41:50.930Z,25.61
2024-04-13T09:42:50.952Z,25.44
2024-04-13T09:43:50.893Z,25.43
2024-04-13T09:44:51.548Z,25.03
2024-04-13T09:45:50.184Z,24.96
2024-04-13T09:46:50.870Z,24.81
2024-04-13T09:47:51.596Z,24.69
2024-04-13T09:48:51.017Z,24.64
2024-04-13T09:49:50.865Z,24.49
2024-04-13T09:50:51.464Z,24.65
2024-04-13T09:51:50.853Z,24.88
2024-04-13T09:52:50.765Z,24.95
2024-04-13T09:53:51.438Z,24.52
2024-04-13T09:54:50.900Z,24.08
2024-04-13T09:55:51.389Z,23.96
2024-04-13T09:56:50.793Z,24.22
2024-04-13T09:57:50.768Z,24.63
2024-04-13T09:58:51.910Z,25.11
2024-04-13T09:59:50.746Z,25.27
2024-04-13T10:00:51.431Z,25.22
2024-04-13T10:01:50.714Z,25.31
2024-04-13T10:02:51.441Z,25.34
2024-04-13T10:03:49.923Z,25.48
2024-04-13T10:04:51.279Z,25.57
2024-04-13T10:05:50.619Z,25.28
2024-04-13T10:06:50.628Z,25.19
2024-04-13T10:07:50.594Z,24.88
2024-04-13T10:08:50.590Z,24.78
2024-04-13T10:09:50.161Z,24.89
2024-04-13T10:10:50.602Z,25.00
2024-04-13T10:11:51.198Z,24.82
2024-04-13T10:12:50.583Z,24.47
2024-04-13T10:13:51.172Z,24.17
2024-04-13T10:14:50.487Z,24.27
2024-04-13T10:15:51.196Z,24.39
2024-04-13T10:16:51.191Z,24.44
2024-04-13T10:17:50.335Z,24.65
2024-04-13T10:18:50.337Z,24.69
2024-04-13T10:19:50.432Z,24.98
2024-04-13T10:20:50.449Z,25.28
2024-04-13T10:21:50.524Z,25.54
2024-04-13T10:22:51.041Z,25.49
2024-04-13T10:23:50.378Z,25.70
2024-04-13T10:24:51.728Z,26.03
2024-04-13T10:25:50.348Z,26.18
2024-04-13T10:26:51.522Z,26.35
2024-04-13T10:27:51.524Z,26.33
2024-04-13T10:28:50.962Z,26.39
2024-04-13T10:29:51.527Z,26.29
2024-04-13T10:30:52.359Z,26.17
2024-04-13T10:31:51.543Z,26.24
2024-04-13T10:32:51.474Z,26.34
2024-04-13T10:33:50.289Z,26.05
2024-04-13T10:34:50.230Z,25.66
2024-04-13T10:35:50.242Z,25.63
2024-04-13T10:36:50.851Z,25.52
2024-04-13T10:37:51.379Z,25.67
2024-04-13T10:38:51.367Z,25.82
2024-04-13T10:39:51.457Z,25.86
2024-04-13T10:40:50.149Z,25.93
2024-04-13T10:41:51.335Z,26.22
2024-04-13T10:42:52.082Z,26.43
2024-04-13T10:43:50.770Z,26.67
2024-04-13T10:44:50.081Z,26.71
2024-04-13T10:45:50.340Z,26.69
2024-04-13T10:46:50.728Z,26.55
2024-04-13T10:47:50.152Z,26.51
2024-04-13T10:48:50.777Z,26.39
2024-04-13T10:49:55.089Z,25.93
2024-04-13T10:50:51.027Z,25.95
2024-04-13T10:51:49.456Z,26.15
2024-04-13T10:52:49.986Z,26.15
2024-04-13T10:53:49.964Z,25.75
2024-04-13T10:54:50.627Z,25.54
2024-04-13T10:55:49.955Z,25.88
2024-04-13T10:56:52.479Z,26.39
2024-04-13T10:57:51.254Z,26.89
2024-04-13T10:58:50.578Z,27.13
2024-04-13T10:59:49.923Z,27.27
2024-04-13T11:00:50.590Z,27.74
2024-04-13T11:01:50.514Z,27.90
2024-04-13T11:02:49.903Z,27.88
2024-04-13T11:03:49.890Z,27.61
2024-04-13T11:04:49.842Z,27.46
2024-04-13T11:05:50.456Z,27.47
2024-04-13T11:06:50.596Z,27.18
2024-04-13T11:07:49.770Z,26.92
2024-04-13T11:08:49.803Z,27.15
2024-04-13T11:09:50.495Z,27.17
2024-04-13T11:10:49.762Z,27.28
2024-04-13T11:11:49.790Z,27.51
2024-04-13T11:12:49.767Z,27.60
2024-04-13T11:13:49.716Z,27.50
2024-04-13T11:14:48.946Z,27.50
2024-04-13T11:15:49.767Z,27.48
2024-04-13T11:16:49.675Z,27.40
2024-04-13T11:17:49.753Z,27.05
2024-04-13T11:18:49.769Z,27.16
2024-04-13T11:19:49.719Z,27.30
2024-04-13T11:20:49.638Z,27.20
2024-04-13T11:21:49.613Z,26.73
2024-04-13T11:22:49.586Z,26.66
2024-04-13T11:23:49.604Z,26.89
2024-04-13T11:24:49.710Z,26.82
2024-04-13T11:25:50.200Z,26.82
2024-04-13T11:26:49.574Z,26.92
2024-04-13T11:27:49.661Z,26.73
2024-04-13T11:28:49.531Z,26.84
2024-04-13T11:29:49.244Z,26.91
2024-04-13T11:30:49.400Z,27.07
2024-04-13T11:31:49.872Z,27.27
2024-04-13T11:32:49.545Z,27.52
2024-04-13T11:33:49.506Z,27.67
2024-04-13T11:34:49.464Z,27.84
2024-04-13T11:35:49.438Z,28.03
2024-04-13T11:36:50.125Z,28.20
2024-04-13T11:37:48.795Z,28.45
2024-04-13T11:38:48.803Z,28.69
2024-04-13T11:39:48.791Z,29.00
2024-04-13T11:40:49.351Z,29.07
2024-04-13T11:41:49.330Z,28.56
2024-04-13T11:42:53.175Z,28.41
2024-04-13T11:43:51.566Z,28.11
2024-04-13T11:44:49.375Z,27.61
2024-04-13T11:45:49.003Z,27.35
2024-04-13T11:46:49.962Z,27.37
2024-04-13T11:47:49.350Z,27.42
2024-04-13T11:48:49.386Z,27.51
2024-04-13T11:49:48.599Z,27.31
2024-04-13T11:50:49.325Z,26.99
2024-04-13T11:51:49.988Z,27.06
2024-04-13T11:52:49.870Z,27.28
2024-04-13T11:53:53.006Z,27.46
2024-04-13T11:54:49.939Z,27.42
2024-04-13T11:55:50.444Z,27.40
2024-04-13T11:56:51.783Z,27.12
2024-04-13T11:57:50.134Z,26.67
2024-04-13T11:58:49.172Z,26.25
2024-04-13T11:59:49.805Z,26.10
2024-04-13T12:00:49.199Z,26.26
2024-04-13T12:01:50.317Z,26.14
2024-04-13T12:02:49.784Z,26.45
2024-04-13T12:03:49.916Z,27.06
2024-04-13T12:04:49.132Z,27.53
2024-04-13T12:05:50.252Z,27.96
2024-04-13T12:06:49.728Z,28.24
2024-04-13T12:07:49.071Z,28.39
2024-04-13T12:08:48.425Z,28.62
2024-04-13T12:09:49.106Z,28.74
2024-04-13T12:10:49.659Z,28.55
2024-04-13T12:11:49.011Z,28.63
2024-04-13T12:12:49.636Z,28.75
2024-04-13T12:13:49.620Z,28.12
2024-04-13T12:14:54.689Z,27.43
2024-04-13T12:15:49.965Z,27.21
2024-04-13T12:16:48.925Z,27.20
2024-04-13T12:17:48.259Z,27.33
2024-04-13T12:18:49.326Z,27.34
2024-04-13T12:19:48.866Z,27.39
2024-04-13T12:20:48.859Z,27.18
2024-04-13T12:21:48.433Z,27.11
2024-04-13T12:22:49.486Z,27.32
2024-04-13T12:23:48.807Z,27.40
2024-04-13T12:24:49.511Z,27.56
2024-04-13T12:25:49.455Z,27.75
2024-04-13T12:26:49.422Z,27.72
2024-04-13T12:27:49.441Z,27.63
2024-04-13T12:28:49.406Z,27.73
2024-04-13T12:29:49.394Z,27.69
2024-04-13T12:30:49.403Z,27.85
2024-04-13T12:31:48.751Z,28.00
2024-04-13T12:32:49.545Z,28.39
2024-04-13T12:33:49.418Z,28.21
2024-04-13T12:34:49.333Z,28.24
2024-04-13T12:35:49.320Z,28.45
2024-04-13T12:36:48.657Z,28.44
2024-04-13T12:37:50.706Z,28.31
2024-04-13T12:38:49.292Z,28.46
2024-04-13T12:39:48.636Z,28.27
2024-04-13T12:40:49.254Z,28.12
2024-04-13T12:41:50.718Z,28.05
2024-04-13T12:42:48.631Z,28.18
2024-04-13T12:43:48.415Z,28.31
2024-04-13T12:44:49.190Z,28.27
2024-04-13T12:45:49.383Z,28.31
2024-04-13T12:46:49.154Z,28.12
2024-04-13T12:47:48.668Z,28.01
2024-04-13T12:48:49.746Z,28.03
2024-04-13T12:49:48.530Z,28.09
2024-04-13T12:50:49.660Z,28.28
2024-04-13T12:51:48.546Z,28.23
2024-04-13T12:52:52.309Z,27.98
2024-04-13T12:53:48.515Z,27.95
2024-04-13T12:54:49.699Z,28.02
2024-04-13T12:55:49.603Z,28.12
2024-04-13T12:56:49.592Z,28.07
2024-04-13T12:57:49.629Z,28.02
2024-04-13T12:58:52.178Z,28.25
2024-04-13T12:59:49.545Z,28.45
2024-04-13T13:00:49.587Z,28.49
2024-04-13T13:01:49.001Z,28.29
2024-04-13T13:02:49.655Z,28.11
2024-04-13T13:03:49.602Z,28.02
2024-04-13T13:04:48.929Z,27.82
2024-04-13T13:05:50.514Z,27.61